메인 페이지
METAR-TAF:

METAR-TAF

공항 :

Houma-Terrebonne Airport

Houma, 루이지애나, 미국

위도: 29-34N, 경도: 090-40W, 고도: 3m

현재 날씨관측

예보는 16분 전, 00:55시(UTC)에 발표되었습니다.
남남동3kt
온도 26°C
습도 94%
기압 1016 hPa
시정: 8.0km
맑음
박무

METAR: KHUM 150055Z AUTO 16003KT 5SM BR CLR 26/25 A2999 RMK AO2 T02580245

시각: 20:11 (01:11 UTC)

예보

예보는 1 시간 51분 전, 23:20시(UTC)에 발표되었습니다.
예보 대상 시간: 15일 00시부터 15일 24시까지 (UTC)
여러 방향의 바람 3kt
시정: 10km
고도 4000ft 상공 구름 조금
고도 25000ft 상공 구름 보통
일시적
15일 08시부터 15일 12시까지 (UTC)
시정: 6.4km
박무
15일 1500시부터 (UTC)
북서4kt
시정: 10km
고도 3500ft 상공 구름 조금
고도 10000ft 상공 구름 보통
15일 1800시부터 (UTC)
남남동5kt
시정: 10km
고도 3500ft 상공 구름 보통
고도 9000ft 상공 구름 많음
확률 30%
15일 18시부터 15일 24시까지 (UTC)
시정: 6.4km
고도 3000ft 상공 구름 많음, 적란운.
뇌우, 비

TAF: KHUM 142320Z 1500/1524 VRB03KT P6SM FEW040 SCT250 TEMPO 1508/1512 4SM BR FM151500 31004KT P6SM FEW035 SCT100 FM151800 15005KT P6SM SCT035 BKN090 PROB30 1518/1524 4SM TSRA BKN030CB

4,000개 이상의 공항 관측 자료 및 예보 (METAR 및 TAF 보고).

지도상에서 검색 가능한 기상관측소가 노란 점과 빨간 점으로 표시되어 있습니다.

기상관측소 명을 보려면 표시 위로 마우스를 이동하세요.

날씨 관측과 예보를 보려면 클릭하세요.

지도 변경 : 확대하려면 엑스 표시가 있는 녹색 버튼, 축소하려면 빼기 표시가 있는 녹색 버튼, 다음 페이지의 지도를 보려면 녹색 화살표를 클릭하세요.


METAR-TAF: